Portada
METAR-TAF:

METAR-TAF

Aeroports :

Pembrey, Gal·les

latitud: 51-43N, longitud: 004-22W, altitud: 3 m

Observació

L'informe es va fer fa 1 hora i 1 minuts, a les 15:50 UTC
Vent 16 kt del Oest
Temperatura 6°C
Humitat 81%
Pressió 1002 hPa
Visibilitat 10 km o més

METAR: EGOP 111550Z AUTO 28016KT 9999 // NCD 06/03 Q1002

Hora: 16:51 (16:51 UTC)


TAF: manca

Observacions i pronòstics meteorològics de més de 4000 aeroports (METAR i TAF).

Les estacions disponibles són els punts grocs i vermells al mapa.

Posi el ratolí al punt desitjat per veure el nom de l'estació.

Feu clic per veure les observacions i els pronòstics meteorològics.

Per canviar el mapa: feu clic els botons verds amb una creu de color negre per apropar; al botó verd amb un guió per allunyar la imatge; o en les fletxes verdes per a mapes adjacents.


METAR-TAF: